createdAt,value
2018-07-07T00:02:31.782Z,11.10
2018-07-07T00:05:31.757Z,11.80
2018-07-07T00:08:31.701Z,9.30
2018-07-07T00:11:31.708Z,10.90
2018-07-07T00:14:31.633Z,11.50
2018-07-07T00:17:31.649Z,9.90
2018-07-07T00:20:31.586Z,10.70
2018-07-07T00:23:31.555Z,10.80
2018-07-07T00:26:31.735Z,10.30
2018-07-07T00:29:31.507Z,13.10
2018-07-07T00:32:31.505Z,10.30
2018-07-07T00:35:31.458Z,10.50
2018-07-07T00:38:31.420Z,11.20
2018-07-07T00:41:31.372Z,10.70
2018-07-07T00:44:31.315Z,10.90
2018-07-07T00:47:31.297Z,11.20
2018-07-07T00:50:31.234Z,10.20
2018-07-07T00:53:31.256Z,10.50
2018-07-07T00:56:31.183Z,10.30
2018-07-07T00:59:31.152Z,10.70
2018-07-07T01:02:31.105Z,11.90
2018-07-07T01:05:31.101Z,9.40
2018-07-07T01:08:31.047Z,9.90
2018-07-07T01:11:31.033Z,11.10
2018-07-07T01:14:30.986Z,10.60
2018-07-07T01:17:31.179Z,11.00
2018-07-07T01:20:30.905Z,10.30
2018-07-07T01:23:30.896Z,10.70
2018-07-07T01:26:30.859Z,11.50
2018-07-07T01:29:30.837Z,11.10
2018-07-07T01:32:30.787Z,10.00
2018-07-07T01:35:30.779Z,11.30
2018-07-07T01:38:30.698Z,10.10
2018-07-07T01:41:30.733Z,11.00
2018-07-07T01:44:30.628Z,11.70
2018-07-07T01:47:30.625Z,12.10
2018-07-07T01:50:30.564Z,11.60
2018-07-07T01:53:30.541Z,10.40
2018-07-07T01:56:30.514Z,12.00
2018-07-07T01:59:30.518Z,12.60
2018-07-07T02:02:30.432Z,11.30
2018-07-07T02:05:30.450Z,15.40
2018-07-07T02:08:30.382Z,13.60
2018-07-07T02:11:30.343Z,12.00
2018-07-07T02:14:30.324Z,10.70
2018-07-07T02:17:30.306Z,9.00
2018-07-07T02:20:30.243Z,9.60
2018-07-07T02:23:30.217Z,12.30
2018-07-07T02:26:30.165Z,11.10
2018-07-07T02:29:30.151Z,10.70
2018-07-07T02:32:30.112Z,12.20
2018-07-07T02:35:30.088Z,12.30
2018-07-07T02:38:30.056Z,10.40
2018-07-07T02:41:30.021Z,10.00
2018-07-07T02:44:29.987Z,10.30
2018-07-07T02:47:30.252Z,9.60
2018-07-07T02:50:29.899Z,8.90
2018-07-07T02:53:29.906Z,8.70
2018-07-07T02:56:29.833Z,11.10
2018-07-07T02:59:29.861Z,9.20
2018-07-07T03:02:29.767Z,12.50
2018-07-07T03:05:29.754Z,11.40
2018-07-07T03:08:29.697Z,8.90
2018-07-07T03:11:29.739Z,10.40
2018-07-07T03:14:29.661Z,10.00
2018-07-07T03:17:29.615Z,10.60
2018-07-07T03:20:29.572Z,12.70
2018-07-07T03:23:29.544Z,9.30
2018-07-07T03:26:29.521Z,9.80
2018-07-07T03:29:29.501Z,9.20
2018-07-07T03:32:29.428Z,10.50
2018-07-07T03:35:29.434Z,8.50
2018-07-07T03:38:29.364Z,13.80
2018-07-07T03:41:29.365Z,11.50
2018-07-07T03:44:29.301Z,12.10
2018-07-07T03:47:29.432Z,11.10
2018-07-07T03:50:29.234Z,11.40
2018-07-07T03:53:29.223Z,11.70
2018-07-07T03:56:29.167Z,8.70
2018-07-07T03:59:29.147Z,9.50
2018-07-07T04:02:29.098Z,9.00
2018-07-07T04:05:29.089Z,10.50
2018-07-07T04:08:29.032Z,11.80
2018-07-07T04:11:29.044Z,10.20
2018-07-07T04:14:28.983Z,8.50
2018-07-07T04:17:28.981Z,10.90
2018-07-07T04:20:28.906Z,9.40
2018-07-07T04:23:28.884Z,10.30
2018-07-07T04:26:28.841Z,8.90
2018-07-07T04:29:28.806Z,10.00
2018-07-07T04:32:28.811Z,10.40
2018-07-07T04:35:28.749Z,10.50
2018-07-07T04:38:28.692Z,9.80
2018-07-07T04:41:28.712Z,10.80
2018-07-07T04:44:28.651Z,11.10
2018-07-07T04:47:28.640Z,15.40
2018-07-07T04:50:28.556Z,14.10
2018-07-07T04:53:28.553Z,8.40
2018-07-07T04:56:28.497Z,9.10
2018-07-07T04:59:28.470Z,12.00
2018-07-07T05:02:28.431Z,9.20
2018-07-07T05:05:28.406Z,6.90
2018-07-07T05:08:28.364Z,10.20
2018-07-07T05:11:28.371Z,12.60
2018-07-07T05:14:28.291Z,9.10
2018-07-07T05:17:28.336Z,13.20
2018-07-07T05:20:28.258Z,12.20
2018-07-07T05:23:28.226Z,9.80
2018-07-07T05:26:28.203Z,8.90
2018-07-07T05:29:28.148Z,11.20
2018-07-07T05:32:28.090Z,8.70
2018-07-07T05:35:28.075Z,7.30
2018-07-07T05:38:28.059Z,8.00
2018-07-07T05:41:28.011Z,7.90
2018-07-07T05:44:27.981Z,7.20
2018-07-07T05:47:27.947Z,8.70
2018-07-07T05:50:27.912Z,7.60
2018-07-07T05:53:27.901Z,9.20
2018-07-07T05:56:27.851Z,8.70
2018-07-07T05:59:31.184Z,8.90
2018-07-07T06:02:27.777Z,9.00
2018-07-07T06:05:27.751Z,8.10
2018-07-07T06:08:27.711Z,9.00
2018-07-07T06:11:27.684Z,8.30
2018-07-07T06:14:27.642Z,8.30
2018-07-07T06:17:27.681Z,9.00
2018-07-07T06:20:27.612Z,8.70
2018-07-07T06:23:27.545Z,7.70
2018-07-07T06:26:27.505Z,5.20
2018-07-07T06:29:27.501Z,11.20
2018-07-07T06:32:27.435Z,5.30
2018-07-07T06:35:27.429Z,5.70
2018-07-07T06:38:27.409Z,6.40
2018-07-07T06:41:27.363Z,9.10
2018-07-07T06:44:27.302Z,5.40
2018-07-07T06:47:27.309Z,7.60
2018-07-07T06:50:27.245Z,5.70
2018-07-07T06:53:27.230Z,7.60
2018-07-07T06:56:27.171Z,6.10
2018-07-07T06:59:27.180Z,5.90
2018-07-07T07:02:27.110Z,5.90
2018-07-07T07:05:27.097Z,6.00
2018-07-07T07:08:33.879Z,5.40
2018-07-07T07:11:27.040Z,5.40
2018-07-07T07:14:27.003Z,8.30
2018-07-07T07:17:26.987Z,7.00
2018-07-07T07:20:26.934Z,7.30
2018-07-07T07:23:26.925Z,5.70
2018-07-07T07:26:26.872Z,7.00
2018-07-07T07:29:26.857Z,7.40
2018-07-07T07:32:26.806Z,5.80
2018-07-07T07:35:26.795Z,4.80
2018-07-07T07:38:26.753Z,5.80
2018-07-07T07:41:26.766Z,6.70
2018-07-07T07:44:26.695Z,7.00
2018-07-07T07:47:26.695Z,8.90
2018-07-07T07:50:26.627Z,13.40
2018-07-07T07:53:26.624Z,5.60
2018-07-07T07:56:26.580Z,6.60
2018-07-07T07:59:26.558Z,8.80
2018-07-07T08:02:26.503Z,7.50
2018-07-07T08:05:26.507Z,9.30
2018-07-07T08:08:26.461Z,7.50
2018-07-07T08:11:26.456Z,5.60
2018-07-07T08:14:26.418Z,6.10
2018-07-07T08:17:26.401Z,10.00
2018-07-07T08:20:26.335Z,7.40
2018-07-07T08:23:26.319Z,5.50
2018-07-07T08:26:26.284Z,5.30
2018-07-07T08:29:26.257Z,4.80
2018-07-07T08:32:26.218Z,7.70
2018-07-07T08:35:26.202Z,3.90
2018-07-07T08:38:26.176Z,7.10
2018-07-07T08:41:26.165Z,4.40
2018-07-07T08:44:26.109Z,5.30
2018-07-07T08:47:26.125Z,5.90
2018-07-07T08:50:26.066Z,8.60
2018-07-07T08:53:26.055Z,5.50
2018-07-07T08:56:25.996Z,3.90
2018-07-07T08:59:26.001Z,6.30
2018-07-07T09:02:25.945Z,6.80
2018-07-07T09:05:25.930Z,9.10
2018-07-07T09:08:25.878Z,4.90
2018-07-07T09:11:25.884Z,5.10
2018-07-07T09:14:25.845Z,3.80
2018-07-07T09:17:25.895Z,3.90
2018-07-07T09:20:25.769Z,6.80
2018-07-07T09:23:25.783Z,5.50
2018-07-07T09:26:25.722Z,7.70
2018-07-07T09:29:25.730Z,6.00
2018-07-07T09:32:25.656Z,8.50
2018-07-07T09:35:25.658Z,4.80
2018-07-07T09:38:25.607Z,5.40
2018-07-07T09:41:25.679Z,5.40
2018-07-07T09:44:25.558Z,4.10
2018-07-07T09:47:25.544Z,3.90
2018-07-07T09:50:25.498Z,4.30
2018-07-07T09:53:25.492Z,2.90
2018-07-07T09:56:25.476Z,3.70
2018-07-07T09:59:25.438Z,6.20
2018-07-07T10:02:25.386Z,2.60
2018-07-07T10:05:25.378Z,3.40
2018-07-07T10:08:25.331Z,5.00
2018-07-07T10:11:25.320Z,5.20
2018-07-07T10:14:25.279Z,5.10
2018-07-07T10:17:25.276Z,3.40
2018-07-07T10:20:25.225Z,3.30
2018-07-07T10:23:25.219Z,3.40
2018-07-07T10:26:25.198Z,3.00
2018-07-07T10:29:25.163Z,4.40
2018-07-07T10:32:25.126Z,4.60
2018-07-07T10:35:25.273Z,4.20
2018-07-07T10:38:25.079Z,5.90
2018-07-07T10:41:25.063Z,4.90
2018-07-07T10:44:25.031Z,6.00
2018-07-07T10:47:25.024Z,4.60
2018-07-07T10:50:24.985Z,4.60
2018-07-07T10:53:24.967Z,12.80
2018-07-07T10:56:24.929Z,3.70
2018-07-07T10:59:24.911Z,4.30
2018-07-07T11:02:24.919Z,5.90
2018-07-07T11:05:24.870Z,7.20
2018-07-07T11:08:24.828Z,5.60
2018-07-07T11:11:24.838Z,4.30
2018-07-07T11:14:24.782Z,3.50
2018-07-07T11:17:24.775Z,6.60
2018-07-07T11:20:24.744Z,5.30
2018-07-07T11:23:24.717Z,5.10
2018-07-07T11:26:24.716Z,5.10
2018-07-07T11:29:24.770Z,3.80
2018-07-07T11:32:24.642Z,5.80
2018-07-07T11:35:24.643Z,3.10
2018-07-07T11:38:24.599Z,3.30
2018-07-07T11:41:24.584Z,2.80
2018-07-07T11:44:24.545Z,3.90
2018-07-07T11:47:24.561Z,2.20
2018-07-07T11:50:24.558Z,2.90
2018-07-07T11:53:24.484Z,2.90
2018-07-07T11:56:24.474Z,4.30
2018-07-07T11:59:24.429Z,3.50
2018-07-07T12:02:24.403Z,6.20
2018-07-07T12:05:24.393Z,3.20
2018-07-07T12:08:24.376Z,2.80
2018-07-07T12:11:24.412Z,2.80
2018-07-07T12:14:24.299Z,2.60
2018-07-07T12:17:24.340Z,4.10
2018-07-07T12:20:24.259Z,5.50
2018-07-07T12:23:24.280Z,3.70
2018-07-07T12:26:24.210Z,2.60
2018-07-07T12:29:24.238Z,1.40
2018-07-07T12:32:24.183Z,2.10
2018-07-07T12:35:24.156Z,2.50
2018-07-07T12:38:24.126Z,3.90
2018-07-07T12:41:24.140Z,2.10
2018-07-07T12:44:24.058Z,5.70
2018-07-07T12:47:24.060Z,1.70
2018-07-07T12:50:24.007Z,2.80
2018-07-07T12:53:24.668Z,1.60
2018-07-07T12:56:23.974Z,2.70
2018-07-07T12:59:23.957Z,4.90
2018-07-07T13:02:23.909Z,2.90
2018-07-07T13:05:23.938Z,3.00
2018-07-07T13:08:23.881Z,3.30
2018-07-07T13:11:23.879Z,1.80
2018-07-07T13:14:23.846Z,2.90
2018-07-07T13:17:23.826Z,2.20
2018-07-07T13:20:23.814Z,3.10
2018-07-07T13:23:23.770Z,2.10
2018-07-07T13:26:23.938Z,2.20
2018-07-07T13:29:23.748Z,2.10
2018-07-07T13:32:23.734Z,1.50
2018-07-07T13:35:23.671Z,3.60
2018-07-07T13:38:23.633Z,3.10
2018-07-07T13:41:23.685Z,5.10
2018-07-07T13:44:23.563Z,4.30
2018-07-07T13:47:23.618Z,2.00
2018-07-07T13:50:23.554Z,2.70
2018-07-07T13:53:23.568Z,3.20
2018-07-07T13:56:23.566Z,3.20
2018-07-07T13:59:26.252Z,3.30
2018-07-07T14:02:23.568Z,5.60
2018-07-07T14:05:25.173Z,2.70
2018-07-07T14:08:23.467Z,6.10
2018-07-07T14:11:23.433Z,5.00
2018-07-07T14:14:23.324Z,3.40
2018-07-07T14:17:25.188Z,5.60
2018-07-07T14:20:23.283Z,3.40
2018-07-07T14:23:23.269Z,3.20
2018-07-07T14:26:23.263Z,6.30
2018-07-07T14:29:23.230Z,5.90
2018-07-07T14:32:23.233Z,4.80
2018-07-07T14:35:23.152Z,4.30
2018-07-07T14:38:23.169Z,1.90
2018-07-07T14:41:23.121Z,6.10
2018-07-07T14:44:23.075Z,6.20
2018-07-07T14:47:23.056Z,2.20
2018-07-07T14:50:23.024Z,4.10
2018-07-07T14:53:22.990Z,5.20
2018-07-07T14:56:22.979Z,6.20
2018-07-07T14:59:24.752Z,1.50
2018-07-07T15:02:22.923Z,2.70
2018-07-07T15:05:22.886Z,4.30
2018-07-07T15:08:22.863Z,3.20
2018-07-07T15:11:22.829Z,4.20
2018-07-07T15:14:22.816Z,3.60
2018-07-07T15:17:22.778Z,3.70
2018-07-07T15:20:22.750Z,5.50
2018-07-07T15:23:22.727Z,5.30
2018-07-07T15:26:22.703Z,2.70
2018-07-07T15:29:22.674Z,4.30
2018-07-07T15:32:22.648Z,3.20
2018-07-07T15:35:22.682Z,5.80
2018-07-07T15:38:22.603Z,3.50
2018-07-07T15:41:22.574Z,2.80
2018-07-07T15:44:22.550Z,5.30
2018-07-07T15:47:22.562Z,13.40
2018-07-07T15:50:22.477Z,6.50
2018-07-07T15:53:22.453Z,2.20
2018-07-07T15:56:22.430Z,2.70
2018-07-07T15:59:22.419Z,2.20
2018-07-07T16:02:22.367Z,5.40
2018-07-07T16:05:22.349Z,3.60
2018-07-07T16:08:22.308Z,3.20
2018-07-07T16:11:22.305Z,5.60
2018-07-07T16:14:22.244Z,4.90
2018-07-07T16:17:22.671Z,6.00
2018-07-07T16:20:22.226Z,4.20
2018-07-07T16:23:22.202Z,6.70
2018-07-07T16:26:22.139Z,4.70
2018-07-07T16:29:22.142Z,5.40
2018-07-07T16:32:22.082Z,2.10
2018-07-07T16:35:22.072Z,2.50
2018-07-07T16:38:22.030Z,3.70
2018-07-07T16:41:22.005Z,4.00
2018-07-07T16:44:21.995Z,7.60
2018-07-07T16:47:21.971Z,3.40
2018-07-07T16:50:21.934Z,5.60
2018-07-07T16:53:21.893Z,3.20
2018-07-07T16:56:21.849Z,5.30
2018-07-07T16:59:21.822Z,2.50
2018-07-07T17:02:21.782Z,4.20
2018-07-07T17:05:21.784Z,2.80
2018-07-07T17:08:21.728Z,2.60
2018-07-07T17:11:21.723Z,2.50
2018-07-07T17:14:21.669Z,4.60
2018-07-07T17:17:21.644Z,3.30
2018-07-07T17:20:21.616Z,4.00
2018-07-07T17:23:21.591Z,3.10
2018-07-07T17:26:21.546Z,3.80
2018-07-07T17:29:21.535Z,3.90
2018-07-07T17:32:21.480Z,3.60
2018-07-07T17:35:21.485Z,2.90
2018-07-07T17:38:21.422Z,3.20
2018-07-07T17:41:21.443Z,5.40
2018-07-07T17:44:21.376Z,2.40
2018-07-07T17:47:21.356Z,3.30
2018-07-07T17:50:21.308Z,4.10
2018-07-07T17:53:21.286Z,2.40
2018-07-07T17:56:21.243Z,4.40
2018-07-07T17:59:21.223Z,3.10
2018-07-07T18:02:21.170Z,2.20
2018-07-07T18:05:21.166Z,2.60
2018-07-07T18:08:21.115Z,2.90
2018-07-07T18:11:21.090Z,2.10
2018-07-07T18:14:21.061Z,3.20
2018-07-07T18:17:21.028Z,6.00
2018-07-07T18:20:20.995Z,2.60
2018-07-07T18:23:20.951Z,2.90
2018-07-07T18:26:20.931Z,4.10
2018-07-07T18:29:20.900Z,4.00
2018-07-07T18:32:20.853Z,4.10
2018-07-07T18:35:20.831Z,3.70
2018-07-07T18:38:20.826Z,4.30
2018-07-07T18:41:20.766Z,3.30
2018-07-07T18:44:20.793Z,3.60
2018-07-07T18:47:20.717Z,2.20
2018-07-07T18:50:20.648Z,3.40
2018-07-07T18:53:20.636Z,3.40
2018-07-07T18:56:20.617Z,4.20
2018-07-07T18:59:20.599Z,2.00
2018-07-07T19:02:20.564Z,2.40
2018-07-07T19:05:20.510Z,2.90
2018-07-07T19:08:20.479Z,3.40
2018-07-07T19:11:20.450Z,4.60
2018-07-07T19:14:20.409Z,2.80
2018-07-07T19:17:20.369Z,2.70
2018-07-07T19:20:21.148Z,3.90
2018-07-07T19:23:20.345Z,2.40
2018-07-07T19:26:20.300Z,4.60
2018-07-07T19:29:20.246Z,3.80
2018-07-07T19:32:20.182Z,2.60
2018-07-07T19:35:20.184Z,2.90
2018-07-07T19:38:20.135Z,4.20
2018-07-07T19:41:20.096Z,2.90
2018-07-07T19:44:20.062Z,3.30
2018-07-07T19:47:20.047Z,2.20
2018-07-07T19:50:19.989Z,6.30
2018-07-07T19:53:19.982Z,2.90
2018-07-07T19:56:19.936Z,1.80
2018-07-07T19:59:19.935Z,4.60
2018-07-07T20:02:19.860Z,3.50
2018-07-07T20:05:19.848Z,3.70
2018-07-07T20:08:19.787Z,3.00
2018-07-07T20:11:19.796Z,3.90
2018-07-07T20:14:19.734Z,5.20
2018-07-07T20:17:19.697Z,3.50
2018-07-07T20:20:19.662Z,2.10
2018-07-07T20:23:19.645Z,3.10
2018-07-07T20:26:19.591Z,3.40
2018-07-07T20:29:19.594Z,4.00
2018-07-07T20:32:19.532Z,3.90
2018-07-07T20:35:19.496Z,4.40
2018-07-07T20:38:19.806Z,3.50
2018-07-07T20:41:19.442Z,4.00
2018-07-07T20:44:19.412Z,4.20
2018-07-07T20:47:19.571Z,5.20
2018-07-07T20:50:19.360Z,2.60
2018-07-07T20:53:19.315Z,3.30
2018-07-07T20:56:19.312Z,4.40
2018-07-07T20:59:19.252Z,3.80
2018-07-07T21:02:19.213Z,3.80
2018-07-07T21:05:19.179Z,4.90
2018-07-07T21:08:19.393Z,3.80
2018-07-07T21:11:19.178Z,3.20
2018-07-07T21:14:20.654Z,2.10
2018-07-07T21:17:19.056Z,7.70
2018-07-07T21:20:19.008Z,5.10
2018-07-07T21:23:19.016Z,3.40
2018-07-07T21:26:18.959Z,2.50
2018-07-07T21:29:18.933Z,2.50
2018-07-07T21:32:18.877Z,2.70
2018-07-07T21:35:18.884Z,3.20
2018-07-07T21:38:18.816Z,2.90
2018-07-07T21:41:18.810Z,4.00
2018-07-07T21:44:18.739Z,3.00
2018-07-07T21:47:18.731Z,3.50
2018-07-07T21:50:18.691Z,3.80
2018-07-07T21:53:18.648Z,2.40
2018-07-07T21:56:18.634Z,5.10
2018-07-07T21:59:19.132Z,2.70
2018-07-07T22:02:18.547Z,2.90
2018-07-07T22:05:18.544Z,3.70
2018-07-07T22:08:18.482Z,3.30
2018-07-07T22:11:18.463Z,6.70
2018-07-07T22:14:18.432Z,3.40
2018-07-07T22:17:18.401Z,3.90
2018-07-07T22:20:18.330Z,4.40
2018-07-07T22:23:18.320Z,4.20
2018-07-07T22:26:18.278Z,4.10
2018-07-07T22:29:18.279Z,3.40
2018-07-07T22:32:18.208Z,3.30
2018-07-07T22:35:18.230Z,3.90
2018-07-07T22:38:18.486Z,3.40
2018-07-07T22:41:18.132Z,3.30
2018-07-07T22:44:18.120Z,3.70
2018-07-07T22:47:18.049Z,2.70
2018-07-07T22:50:17.992Z,2.80
2018-07-07T22:53:17.972Z,3.20
2018-07-07T22:56:17.930Z,5.20
2018-07-07T22:59:17.957Z,4.00
2018-07-07T23:02:17.879Z,5.70
2018-07-07T23:05:17.931Z,3.60
2018-07-07T23:08:18.097Z,3.80
2018-07-07T23:11:18.148Z,2.50
2018-07-07T23:14:17.738Z,4.20
2018-07-07T23:17:17.709Z,3.20
2018-07-07T23:20:17.680Z,5.30
2018-07-07T23:23:17.659Z,3.40
2018-07-07T23:26:17.611Z,4.70
2018-07-07T23:29:17.584Z,4.90
2018-07-07T23:32:17.636Z,6.90
2018-07-07T23:35:17.513Z,3.30
2018-07-07T23:38:17.466Z,3.30
2018-07-07T23:41:17.471Z,3.60
2018-07-07T23:44:17.423Z,4.50
2018-07-07T23:47:17.394Z,1.70
2018-07-07T23:50:17.335Z,4.30
2018-07-07T23:53:17.340Z,3.20
2018-07-07T23:56:17.280Z,3.60
2018-07-07T23:59:17.332Z,5.40
